sensor_id;sensor_type;location;lat;lon;timestamp;pressure;altitude;pressure_sealevel;temperature;humidity
37486;BME280;23341;50.296;18.960;2023-05-23T00:00:58;49602.47;;;-144.43;77.73
37486;BME280;23341;50.296;18.960;2023-05-23T00:06:05;49622.47;;;-144.43;77.58
37486;BME280;23341;50.296;18.960;2023-05-23T00:11:10;49624.44;;;-144.43;77.36
37486;BME280;23341;50.296;18.960;2023-05-23T00:16:16;49614.47;;;-144.43;77.31
37486;BME280;23341;50.296;18.960;2023-05-23T00:21:20;49610.47;;;-144.43;77.43
37486;BME280;23341;50.296;18.960;2023-05-23T00:26:26;49630.44;;;-144.43;76.66
37486;BME280;23341;50.296;18.960;2023-05-23T00:31:33;49652.44;;;-144.43;78.01
37486;BME280;23341;50.296;18.960;2023-05-23T00:36:37;49648.44;;;-144.43;77.72
37486;BME280;23341;50.296;18.960;2023-05-23T00:41:45;49626.44;;;-144.43;79.06
37486;BME280;23341;50.296;18.960;2023-05-23T00:46:55;49668.44;;;-144.43;79.06
37486;BME280;23341;50.296;18.960;2023-05-23T00:52:00;49644.44;;;-144.43;78.97
37486;BME280;23341;50.296;18.960;2023-05-23T00:57:06;49598.47;;;-144.43;79.13
37486;BME280;23341;50.296;18.960;2023-05-23T01:02:12;49608.47;;;-144.43;79.87
37486;BME280;23341;50.296;18.960;2023-05-23T01:07:17;49636.44;;;-144.43;80.75
37486;BME280;23341;50.296;18.960;2023-05-23T01:12:28;49670.44;;;-144.43;81.43
37486;BME280;23341;50.296;18.960;2023-05-23T01:17:44;49618.47;;;-144.43;82.22
37486;BME280;23341;50.296;18.960;2023-05-23T01:23:11;49618.47;;;-144.43;83.13
37486;BME280;23341;50.296;18.960;2023-05-23T01:28:20;49624.44;;;-144.43;84.41
37486;BME280;23341;50.296;18.960;2023-05-23T01:33:27;49666.44;;;-144.43;86.06
37486;BME280;23341;50.296;18.960;2023-05-23T01:38:32;49684.41;;;-144.43;86.37
37486;BME280;23341;50.296;18.960;2023-05-23T01:43:38;49670.44;;;-144.43;86.63
37486;BME280;23341;50.296;18.960;2023-05-23T01:48:42;49720.41;;;-144.43;86.78
37486;BME280;23341;50.296;18.960;2023-05-23T01:53:49;49732.38;;;-144.43;86.93
37486;BME280;23341;50.296;18.960;2023-05-23T01:58:55;49752.38;;;-144.43;87.93
37486;BME280;23341;50.296;18.960;2023-05-23T02:04:00;49720.41;;;-144.43;87.32
37486;BME280;23341;50.296;18.960;2023-05-23T02:09:05;49762.38;;;-144.43;87.85
37486;BME280;23341;50.296;18.960;2023-05-23T02:14:12;49788.34;;;-144.43;89.04
37486;BME280;23341;50.296;18.960;2023-05-23T02:19:16;49786.34;;;-144.43;88.95
37486;BME280;23341;50.296;18.960;2023-05-23T02:24:21;49770.38;;;-144.43;88.62
37486;BME280;23341;50.296;18.960;2023-05-23T02:29:27;49770.38;;;-144.43;88.97
37486;BME280;23341;50.296;18.960;2023-05-23T02:34:31;49798.34;;;-144.43;89.99
37486;BME280;23341;50.296;18.960;2023-05-23T02:39:36;49796.34;;;-144.43;90.30
37486;BME280;23341;50.296;18.960;2023-05-23T02:44:41;49798.34;;;-144.43;90.83
37486;BME280;23341;50.296;18.960;2023-05-23T02:49:46;49842.31;;;-144.43;91.45
37486;BME280;23341;50.296;18.960;2023-05-23T02:54:50;49868.31;;;-144.43;91.56
37486;BME280;23341;50.296;18.960;2023-05-23T02:59:56;49814.34;;;-144.43;91.83
37486;BME280;23341;50.296;18.960;2023-05-23T03:05:01;49890.31;;;-144.43;93.24
37486;BME280;23341;50.296;18.960;2023-05-23T03:10:07;49894.28;;;-144.43;93.40
37486;BME280;23341;50.296;18.960;2023-05-23T03:15:12;49948.28;;;-144.43;93.69
37486;BME280;23341;50.296;18.960;2023-05-23T03:20:18;49974.25;;;-144.43;93.41
37486;BME280;23341;50.296;18.960;2023-05-23T03:25:22;49954.25;;;-144.43;92.56
37486;BME280;23341;50.296;18.960;2023-05-23T03:30:30;49982.25;;;-144.43;92.79
37486;BME280;23341;50.296;18.960;2023-05-23T03:35:35;49954.25;;;-144.43;93.19
37486;BME280;23341;50.296;18.960;2023-05-23T03:40:39;49976.25;;;-144.43;93.59
37486;BME280;23341;50.296;18.960;2023-05-23T03:45:46;50000.25;;;-144.43;93.75
37486;BME280;23341;50.296;18.960;2023-05-23T03:50:52;50010.22;;;-144.43;93.34
37486;BME280;23341;50.296;18.960;2023-05-23T03:55:57;50030.22;;;-144.43;93.68
37486;BME280;23341;50.296;18.960;2023-05-23T04:01:03;50040.22;;;-144.43;92.11
37486;BME280;23341;50.296;18.960;2023-05-23T04:06:07;50046.22;;;-144.43;92.39
37486;BME280;23341;50.296;18.960;2023-05-23T04:11:16;50088.19;;;-144.43;92.39
37486;BME280;23341;50.296;18.960;2023-05-23T04:16:22;50094.19;;;-144.43;91.44
37486;BME280;23341;50.296;18.960;2023-05-23T04:21:28;50050.22;;;-144.43;90.28
37486;BME280;23341;50.296;18.960;2023-05-23T04:26:42;50068.22;;;-144.43;89.80
37486;BME280;23341;50.296;18.960;2023-05-23T04:31:48;50082.19;;;-144.43;88.72
37486;BME280;23341;50.296;18.960;2023-05-23T04:36:53;50050.22;;;-144.43;87.31
37486;BME280;23341;50.296;18.960;2023-05-23T04:41:57;50010.22;;;-144.43;84.37
37486;BME280;23341;50.296;18.960;2023-05-23T04:47:22;50012.22;;;-144.43;84.33
37486;BME280;23341;50.296;18.960;2023-05-23T04:52:40;50018.22;;;-144.43;83.29
37486;BME280;23341;50.296;18.960;2023-05-23T04:57:44;50034.22;;;-144.43;82.71
37486;BME280;23341;50.296;18.960;2023-05-23T05:02:51;49982.25;;;-144.43;81.52
37486;BME280;23341;50.296;18.960;2023-05-23T05:07:58;50018.22;;;-144.43;81.86
37486;BME280;23341;50.296;18.960;2023-05-23T05:13:02;50026.22;;;-144.43;81.87
37486;BME280;23341;50.296;18.960;2023-05-23T05:18:17;50022.22;;;-144.43;78.92
37486;BME280;23341;50.296;18.960;2023-05-23T05:23:24;50054.22;;;-144.43;79.82
37486;BME280;23341;50.296;18.960;2023-05-23T05:28:32;50078.19;;;-144.43;77.63
37486;BME280;23341;50.296;18.960;2023-05-23T05:33:37;50086.19;;;-144.43;75.55
37486;BME280;23341;50.296;18.960;2023-05-23T05:38:48;50074.19;;;-144.43;75.19
37486;BME280;23341;50.296;18.960;2023-05-23T05:43:54;50136.16;;;-144.43;74.28
37486;BME280;23341;50.296;18.960;2023-05-23T05:49:01;50186.16;;;-144.43;71.23
37486;BME280;23341;50.296;18.960;2023-05-23T05:54:06;50258.13;;;-144.43;66.81
37486;BME280;23341;50.296;18.960;2023-05-23T05:59:10;50701.94;;;-144.43;54.09
37486;BME280;23341;50.296;18.960;2023-05-23T06:04:17;50937.88;;;-144.43;49.00
37486;BME280;23341;50.296;18.960;2023-05-23T06:09:22;51131.81;;;-144.43;45.03
37486;BME280;23341;50.296;18.960;2023-05-23T06:14:26;51007.84;;;-144.43;45.77
37486;BME280;23341;50.296;18.960;2023-05-23T06:19:33;51631.72;;;-144.43;41.00
37486;BME280;23341;50.296;18.960;2023-05-23T06:24:37;51771.72;;;-144.43;38.53
37486;BME280;23341;50.296;18.960;2023-05-23T06:29:42;51953.69;;;-144.43;37.38
37486;BME280;23341;50.296;18.960;2023-05-23T06:34:49;52117.69;;;-144.43;36.83
37486;BME280;23341;50.296;18.960;2023-05-23T06:39:55;53001.81;;;-144.43;33.34
37486;BME280;23341;50.296;18.960;2023-05-23T06:44:59;52477.72;;;-144.43;34.05
37486;BME280;23341;50.296;18.960;2023-05-23T06:50:08;52671.75;;;-144.43;33.33
37486;BME280;23341;50.296;18.960;2023-05-23T06:55:13;52813.78;;;-144.43;32.91
37486;BME280;23341;50.296;18.960;2023-05-23T07:00:24;52371.72;;;-144.43;34.29
37486;BME280;23341;50.296;18.960;2023-05-23T07:05:46;52471.72;;;-144.43;34.55
37486;BME280;23341;50.296;18.960;2023-05-23T07:10:52;53191.88;;;-144.43;31.64
37486;BME280;23341;50.296;18.960;2023-05-23T07:16:09;53788.06;;;-144.43;30.77
37486;BME280;23341;50.296;18.960;2023-05-23T07:21:26;54078.22;;;-144.43;29.86
37486;BME280;23341;50.296;18.960;2023-05-23T07:26:30;54774.63;;;-144.43;28.80
37486;BME280;23341;50.296;18.960;2023-05-23T07:31:35;53744.06;;;-144.43;30.23
37486;BME280;23341;50.296;18.960;2023-05-23T07:36:41;55236.97;;;-144.43;27.87
37486;BME280;23341;50.296;18.960;2023-05-23T07:41:47;54860.69;;;-144.43;28.26
37486;BME280;23341;50.296;18.960;2023-05-23T07:46:53;55162.91;;;-144.43;28.42
37486;BME280;23341;50.296;18.960;2023-05-23T07:52:00;55343.06;;;-144.43;27.37
37486;BME280;23341;50.296;18.960;2023-05-23T07:57:06;55098.88;;;-144.43;27.54
37486;BME280;23341;50.296;18.960;2023-05-23T08:02:11;56141.81;;;-144.43;26.70
37486;BME280;23341;50.296;18.960;2023-05-23T08:07:17;55016.81;;;-144.43;27.80
37486;BME280;23341;50.296;18.960;2023-05-23T08:12:28;54258.31;;;-144.43;28.68
37486;BME280;23341;50.296;18.960;2023-05-23T08:17:41;53437.94;;;-144.43;30.26
37486;BME280;23341;50.296;18.960;2023-05-23T08:22:47;53610.00;;;-144.43;30.26
37486;BME280;23341;50.296;18.960;2023-05-23T08:27:52;53521.97;;;-144.43;31.33
37486;BME280;23341;50.296;18.960;2023-05-23T08:33:14;54032.19;;;-144.43;30.49
37486;BME280;23341;50.296;18.960;2023-05-23T08:38:23;54808.66;;;-144.43;27.86
37486;BME280;23341;50.296;18.960;2023-05-23T08:43:45;55707.38;;;-144.43;27.05
37486;BME280;23341;50.296;18.960;2023-05-23T08:48:57;54922.72;;;-144.43;26.78
37486;BME280;23341;50.296;18.960;2023-05-23T08:54:06;55599.28;;;-144.43;25.92
37486;BME280;23341;50.296;18.960;2023-05-23T08:59:14;54444.41;;;-144.43;26.62
37486;BME280;23341;50.296;18.960;2023-05-23T09:04:19;54064.22;;;-144.43;27.40
37486;BME280;23341;50.296;18.960;2023-05-23T09:09:37;53910.13;;;-144.43;27.68
37486;BME280;23341;50.296;18.960;2023-05-23T09:14:44;53447.94;;;-144.43;28.05
37486;BME280;23341;50.296;18.960;2023-05-23T09:19:49;53610.00;;;-144.43;27.62
37486;BME280;23341;50.296;18.960;2023-05-23T09:25:19;53616.00;;;-144.43;28.92
37486;BME280;23341;50.296;18.960;2023-05-23T09:30:24;53049.81;;;-144.43;29.35
37486;BME280;23341;50.296;18.960;2023-05-23T09:35:30;52379.72;;;-144.43;31.09
37486;BME280;23341;50.296;18.960;2023-05-23T09:40:36;53009.81;;;-144.43;30.42
37486;BME280;23341;50.296;18.960;2023-05-23T09:45:40;52481.72;;;-144.43;31.08
37486;BME280;23341;50.296;18.960;2023-05-23T09:50:45;52129.69;;;-144.43;30.59
37486;BME280;23341;50.296;18.960;2023-05-23T09:55:58;52103.69;;;-144.43;30.70
37486;BME280;23341;50.296;18.960;2023-05-23T10:01:04;51643.72;;;-144.43;32.31
37486;BME280;23341;50.296;18.960;2023-05-23T10:06:16;51997.69;;;-144.43;31.68
37486;BME280;23341;50.296;18.960;2023-05-23T10:17:02;52433.72;;;-144.43;29.95
37486;BME280;23341;50.296;18.960;2023-05-23T10:22:12;52271.72;;;-144.43;30.32
37486;BME280;23341;50.296;18.960;2023-05-23T10:27:18;52461.72;;;-144.43;30.35
37486;BME280;23341;50.296;18.960;2023-05-23T10:32:25;52525.72;;;-144.43;31.04
37486;BME280;23341;50.296;18.960;2023-05-23T10:37:34;52637.75;;;-144.43;30.26
37486;BME280;23341;50.296;18.960;2023-05-23T10:42:51;52813.78;;;-144.43;30.55
37486;BME280;23341;50.296;18.960;2023-05-23T10:47:59;52941.81;;;-144.43;30.61
37486;BME280;23341;50.296;18.960;2023-05-23T10:53:04;53407.94;;;-144.43;28.87
37486;BME280;23341;50.296;18.960;2023-05-23T10:58:10;53131.84;;;-144.43;29.13
37486;BME280;23341;50.296;18.960;2023-05-23T11:03:16;53155.84;;;-144.43;29.10
37486;BME280;23341;50.296;18.960;2023-05-23T11:08:23;53387.94;;;-144.43;30.47
37486;BME280;23341;50.296;18.960;2023-05-23T11:13:56;53377.91;;;-144.43;29.66
37486;BME280;23341;50.296;18.960;2023-05-23T11:19:21;53379.91;;;-144.43;29.80
37486;BME280;23341;50.296;18.960;2023-05-23T11:24:46;53728.06;;;-144.43;30.24
37486;BME280;23341;50.296;18.960;2023-05-23T11:29:59;53572.00;;;-144.43;29.38
37486;BME280;23341;50.296;18.960;2023-05-23T11:35:07;53175.84;;;-144.43;31.05
37486;BME280;23341;50.296;18.960;2023-05-23T11:40:27;53349.91;;;-144.43;29.39
37486;BME280;23341;50.296;18.960;2023-05-23T11:45:32;52937.81;;;-144.43;30.71
37486;BME280;23341;50.296;18.960;2023-05-23T11:50:46;52781.78;;;-144.43;32.01
37486;BME280;23341;50.296;18.960;2023-05-23T11:55:53;52701.75;;;-144.43;32.10
37486;BME280;23341;50.296;18.960;2023-05-23T12:00:58;52407.72;;;-144.43;34.24
37486;BME280;23341;50.296;18.960;2023-05-23T12:06:05;52349.72;;;-144.43;35.40
37486;BME280;23341;50.296;18.960;2023-05-23T12:11:09;52071.69;;;-144.43;35.67
37486;BME280;23341;50.296;18.960;2023-05-23T12:16:15;51845.72;;;-144.43;37.37
37486;BME280;23341;50.296;18.960;2023-05-23T12:21:24;50999.84;;;-144.43;49.09
37486;BME280;23341;50.296;18.960;2023-05-23T12:26:29;50943.84;;;-144.43;60.41
37486;BME280;23341;50.296;18.960;2023-05-23T12:31:33;50849.88;;;-144.43;79.09
37486;BME280;23341;50.296;18.960;2023-05-23T12:36:40;50799.91;;;-144.43;89.11
37486;BME280;23341;50.296;18.960;2023-05-23T12:41:51;51085.81;;;-144.43;97.28
37486;BME280;23341;50.296;18.960;2023-05-23T12:46:58;51249.78;;;-144.43;100.00
37486;BME280;23341;50.296;18.960;2023-05-23T12:52:03;51435.75;;;-144.43;100.00
37486;BME280;23341;50.296;18.960;2023-05-23T12:57:08;51485.75;;;-144.43;100.00
37486;BME280;23341;50.296;18.960;2023-05-23T13:02:13;51553.72;;;-144.43;100.00
37486;BME280;23341;50.296;18.960;2023-05-23T13:07:19;51533.75;;;-144.43;100.00
37486;BME280;23341;50.296;18.960;2023-05-23T13:12:23;51681.72;;;-144.43;100.00
37486;BME280;23341;50.296;18.960;2023-05-23T13:17:28;51741.72;;;-144.43;100.00
37486;BME280;23341;50.296;18.960;2023-05-23T13:22:34;51761.72;;;-144.43;100.00
37486;BME280;23341;50.296;18.960;2023-05-23T13:27:38;51715.72;;;-144.43;96.63
37486;BME280;23341;50.296;18.960;2023-05-23T13:32:43;51731.72;;;-144.43;94.06
37486;BME280;23341;50.296;18.960;2023-05-23T13:37:48;51593.72;;;-144.43;91.24
37486;BME280;23341;50.296;18.960;2023-05-23T13:42:53;51723.72;;;-144.43;95.33
37486;BME280;23341;50.296;18.960;2023-05-23T13:47:57;51751.72;;;-144.43;96.58
37486;BME280;23341;50.296;18.960;2023-05-23T13:53:03;51837.72;;;-144.43;96.31
37486;BME280;23341;50.296;18.960;2023-05-23T13:58:14;51865.72;;;-144.43;93.47
37486;BME280;23341;50.296;18.960;2023-05-23T14:03:18;51771.72;;;-144.43;90.47
37486;BME280;23341;50.296;18.960;2023-05-23T14:08:25;51717.72;;;-144.43;91.63
37486;BME280;23341;50.296;18.960;2023-05-23T14:13:30;51777.72;;;-144.43;92.83
37486;BME280;23341;50.296;18.960;2023-05-23T14:18:34;51921.72;;;-144.43;93.66
37486;BME280;23341;50.296;18.960;2023-05-23T14:23:40;51829.72;;;-144.43;88.63
37486;BME280;23341;50.296;18.960;2023-05-23T14:28:45;51865.72;;;-144.43;88.05
37486;BME280;23341;50.296;18.960;2023-05-23T14:33:50;51901.72;;;-144.43;87.01
37486;BME280;23341;50.296;18.960;2023-05-23T14:38:55;51871.72;;;-144.43;88.24
37486;BME280;23341;50.296;18.960;2023-05-23T14:44:00;51855.72;;;-144.43;90.68
37486;BME280;23341;50.296;18.960;2023-05-23T14:49:04;51807.72;;;-144.43;91.89
37486;BME280;23341;50.296;18.960;2023-05-23T14:54:10;51725.72;;;-144.43;92.79
37486;BME280;23341;50.296;18.960;2023-05-23T14:59:14;51617.72;;;-144.43;97.10
37486;BME280;23341;50.296;18.960;2023-05-23T15:04:19;51901.72;;;-144.43;95.54
37486;BME280;23341;50.296;18.960;2023-05-23T15:09:25;51833.72;;;-144.43;86.37
37486;BME280;23341;50.296;18.960;2023-05-23T15:14:30;51901.72;;;-144.43;88.83
37486;BME280;23341;50.296;18.960;2023-05-23T15:19:35;51993.69;;;-144.43;89.37
37486;BME280;23341;50.296;18.960;2023-05-23T15:24:42;52001.69;;;-144.43;84.89
37486;BME280;23341;50.296;18.960;2023-05-23T15:29:47;52015.69;;;-144.43;85.76
37486;BME280;23341;50.296;18.960;2023-05-23T15:34:51;51945.69;;;-144.43;81.37
37486;BME280;23341;50.296;18.960;2023-05-23T15:39:57;51925.72;;;-144.43;84.68
37486;BME280;23341;50.296;18.960;2023-05-23T15:45:01;51821.72;;;-144.43;83.26
37486;BME280;23341;50.296;18.960;2023-05-23T15:50:07;51861.72;;;-144.43;82.90
37486;BME280;23341;50.296;18.960;2023-05-23T15:55:15;51841.72;;;-144.43;82.01
37486;BME280;23341;50.296;18.960;2023-05-23T16:00:20;51661.72;;;-144.43;88.10
37486;BME280;23341;50.296;18.960;2023-05-23T16:05:25;51733.72;;;-144.43;85.71
37486;BME280;23341;50.296;18.960;2023-05-23T16:10:31;51587.72;;;-144.43;90.95
37486;BME280;23341;50.296;18.960;2023-05-23T16:15:35;51647.72;;;-144.43;95.46
37486;BME280;23341;50.296;18.960;2023-05-23T16:20:40;51687.72;;;-144.43;89.95
37486;BME280;23341;50.296;18.960;2023-05-23T16:25:45;51727.72;;;-144.43;89.84
37486;BME280;23341;50.296;18.960;2023-05-23T16:30:50;51669.72;;;-144.43;91.71
37486;BME280;23341;50.296;18.960;2023-05-23T16:35:54;51725.72;;;-144.43;90.74
37486;BME280;23341;50.296;18.960;2023-05-23T16:41:00;51635.72;;;-144.43;89.40
37486;BME280;23341;50.296;18.960;2023-05-23T16:46:05;51593.72;;;-144.43;92.09
37486;BME280;23341;50.296;18.960;2023-05-23T16:51:09;51657.72;;;-144.43;90.79
37486;BME280;23341;50.296;18.960;2023-05-23T16:56:15;51615.72;;;-144.43;91.44
37486;BME280;23341;50.296;18.960;2023-05-23T17:01:19;51561.72;;;-144.43;89.96
37486;BME280;23341;50.296;18.960;2023-05-23T17:06:24;51569.72;;;-144.43;90.25
37486;BME280;23341;50.296;18.960;2023-05-23T17:11:30;51455.75;;;-144.43;91.62
37486;BME280;23341;50.296;18.960;2023-05-23T17:16:35;51485.75;;;-144.43;91.65
37486;BME280;23341;50.296;18.960;2023-05-23T17:21:40;51525.75;;;-144.43;92.29
37486;BME280;23341;50.296;18.960;2023-05-23T17:26:46;51557.72;;;-144.43;93.96
37486;BME280;23341;50.296;18.960;2023-05-23T17:31:50;51565.72;;;-144.43;94.60
37486;BME280;23341;50.296;18.960;2023-05-23T17:36:55;51561.72;;;-144.43;95.85
37486;BME280;23341;50.296;18.960;2023-05-23T17:42:01;51531.75;;;-144.43;94.55
37486;BME280;23341;50.296;18.960;2023-05-23T17:47:06;51525.75;;;-144.43;95.46
37486;BME280;23341;50.296;18.960;2023-05-23T17:52:11;51543.75;;;-144.43;95.00
37486;BME280;23341;50.296;18.960;2023-05-23T17:57:18;51519.75;;;-144.43;94.79
37486;BME280;23341;50.296;18.960;2023-05-23T18:02:23;51533.75;;;-144.43;95.02
37486;BME280;23341;50.296;18.960;2023-05-23T18:07:28;51501.75;;;-144.43;95.80
37486;BME280;23341;50.296;18.960;2023-05-23T18:12:35;51439.75;;;-144.43;94.66
37486;BME280;23341;50.296;18.960;2023-05-23T18:17:39;51501.75;;;-144.43;94.59
37486;BME280;23341;50.296;18.960;2023-05-23T18:22:44;51453.75;;;-144.43;95.43
37486;BME280;23341;50.296;18.960;2023-05-23T18:27:51;51459.75;;;-144.43;97.52
37486;BME280;23341;50.296;18.960;2023-05-23T18:32:56;51477.75;;;-144.43;96.03
37486;BME280;23341;50.296;18.960;2023-05-23T18:38:00;51425.75;;;-144.43;95.33
37486;BME280;23341;50.296;18.960;2023-05-23T18:43:06;51411.75;;;-144.43;95.66
37486;BME280;23341;50.296;18.960;2023-05-23T18:48:11;51377.75;;;-144.43;98.69
37486;BME280;23341;50.296;18.960;2023-05-23T18:53:16;51449.75;;;-144.43;100.00
37486;BME280;23341;50.296;18.960;2023-05-23T18:58:22;51481.75;;;-144.43;100.00
37486;BME280;23341;50.296;18.960;2023-05-23T19:03:27;51595.72;;;-144.43;100.00
37486;BME280;23341;50.296;18.960;2023-05-23T19:08:32;51741.72;;;-144.43;100.00
37486;BME280;23341;50.296;18.960;2023-05-23T19:13:38;51949.69;;;-144.43;100.00
37486;BME280;23341;50.296;18.960;2023-05-23T19:18:43;52049.69;;;-144.43;100.00
37486;BME280;23341;50.296;18.960;2023-05-23T19:23:50;52177.69;;;-144.43;100.00
37486;BME280;23341;50.296;18.960;2023-05-23T19:28:56;52197.72;;;-144.43;100.00
37486;BME280;23341;50.296;18.960;2023-05-23T19:34:01;52255.72;;;-144.43;100.00
37486;BME280;23341;50.296;18.960;2023-05-23T19:39:06;52335.72;;;-144.43;100.00
37486;BME280;23341;50.296;18.960;2023-05-23T19:44:12;52409.72;;;-144.43;100.00
37486;BME280;23341;50.296;18.960;2023-05-23T19:49:18;52507.72;;;-144.43;100.00
37486;BME280;23341;50.296;18.960;2023-05-23T19:54:23;52501.72;;;-144.43;100.00
37486;BME280;23341;50.296;18.960;2023-05-23T19:59:29;52527.72;;;-144.43;100.00
37486;BME280;23341;50.296;18.960;2023-05-23T20:04:33;52537.72;;;-144.43;100.00
37486;BME280;23341;50.296;18.960;2023-05-23T20:09:38;52575.75;;;-144.43;100.00
37486;BME280;23341;50.296;18.960;2023-05-23T20:14:44;52649.75;;;-144.43;100.00
37486;BME280;23341;50.296;18.960;2023-05-23T20:19:49;52759.75;;;-144.43;100.00
37486;BME280;23341;50.296;18.960;2023-05-23T20:24:53;52779.78;;;-144.43;100.00
37486;BME280;23341;50.296;18.960;2023-05-23T20:30:00;52829.78;;;-144.43;100.00
37486;BME280;23341;50.296;18.960;2023-05-23T20:35:05;52813.78;;;-144.43;100.00
37486;BME280;23341;50.296;18.960;2023-05-23T20:40:10;52885.78;;;-144.43;100.00
37486;BME280;23341;50.296;18.960;2023-05-23T20:45:16;52857.78;;;-144.43;100.00
37486;BME280;23341;50.296;18.960;2023-05-23T20:50:21;52893.78;;;-144.43;100.00
37486;BME280;23341;50.296;18.960;2023-05-23T20:55:25;52853.78;;;-144.43;100.00
37486;BME280;23341;50.296;18.960;2023-05-23T21:00:32;52883.78;;;-144.43;100.00
37486;BME280;23341;50.296;18.960;2023-05-23T21:05:37;52857.78;;;-144.43;100.00
37486;BME280;23341;50.296;18.960;2023-05-23T21:10:42;52881.78;;;-144.43;100.00
37486;BME280;23341;50.296;18.960;2023-05-23T21:15:52;52901.78;;;-144.43;100.00
37486;BME280;23341;50.296;18.960;2023-05-23T21:20:56;52909.78;;;-144.43;100.00
37486;BME280;23341;50.296;18.960;2023-05-23T21:26:01;52913.78;;;-144.43;100.00
37486;BME280;23341;50.296;18.960;2023-05-23T21:31:07;52973.81;;;-144.43;100.00
37486;BME280;23341;50.296;18.960;2023-05-23T21:36:11;52977.81;;;-144.43;100.00
37486;BME280;23341;50.296;18.960;2023-05-23T21:41:16;53017.81;;;-144.43;100.00
37486;BME280;23341;50.296;18.960;2023-05-23T21:46:22;53013.81;;;-144.43;100.00
37486;BME280;23341;50.296;18.960;2023-05-23T21:51:27;52987.81;;;-144.43;100.00
37486;BME280;23341;50.296;18.960;2023-05-23T21:56:31;52957.81;;;-144.43;100.00
37486;BME280;23341;50.296;18.960;2023-05-23T22:01:37;52905.78;;;-144.43;100.00
37486;BME280;23341;50.296;18.960;2023-05-23T22:06:41;52885.78;;;-144.43;100.00
37486;BME280;23341;50.296;18.960;2023-05-23T22:11:45;52903.78;;;-144.43;100.00
37486;BME280;23341;50.296;18.960;2023-05-23T22:16:51;52913.78;;;-144.43;100.00
37486;BME280;23341;50.296;18.960;2023-05-23T22:21:56;52891.78;;;-144.43;100.00
37486;BME280;23341;50.296;18.960;2023-05-23T22:27:01;52845.78;;;-144.43;100.00
37486;BME280;23341;50.296;18.960;2023-05-23T22:32:07;52857.78;;;-144.43;100.00
37486;BME280;23341;50.296;18.960;2023-05-23T22:37:11;52849.78;;;-144.43;100.00
37486;BME280;23341;50.296;18.960;2023-05-23T22:42:17;52793.78;;;-144.43;100.00
37486;BME280;23341;50.296;18.960;2023-05-23T22:47:23;52841.78;;;-144.43;100.00
37486;BME280;23341;50.296;18.960;2023-05-23T22:52:27;52839.78;;;-144.43;100.00
37486;BME280;23341;50.296;18.960;2023-05-23T22:57:33;52785.78;;;-144.43;100.00
37486;BME280;23341;50.296;18.960;2023-05-23T23:02:38;52853.78;;;-144.43;100.00
37486;BME280;23341;50.296;18.960;2023-05-23T23:07:43;52869.78;;;-144.43;100.00
37486;BME280;23341;50.296;18.960;2023-05-23T23:12:47;52921.78;;;-144.43;100.00
37486;BME280;23341;50.296;18.960;2023-05-23T23:17:53;52867.78;;;-144.43;100.00
37486;BME280;23341;50.296;18.960;2023-05-23T23:22:58;52897.78;;;-144.43;100.00
37486;BME280;23341;50.296;18.960;2023-05-23T23:28:02;52907.78;;;-144.43;100.00
37486;BME280;23341;50.296;18.960;2023-05-23T23:33:08;52931.81;;;-144.43;100.00
37486;BME280;23341;50.296;18.960;2023-05-23T23:38:13;52961.81;;;-144.43;100.00
37486;BME280;23341;50.296;18.960;2023-05-23T23:43:18;53023.81;;;-144.43;100.00
37486;BME280;23341;50.296;18.960;2023-05-23T23:48:24;52985.81;;;-144.43;100.00
37486;BME280;23341;50.296;18.960;2023-05-23T23:53:28;53005.81;;;-144.43;100.00
37486;BME280;23341;50.296;18.960;2023-05-23T23:58:33;52985.81;;;-144.43;100.00
